Time;durP1;ratioP1;P1;durP2;ratioP2;P2;SDS_P1;SDS_P2;PMS_P1;PMS_P2;Temp;Humidity;BMP_temperature;BMP_pressure;BME280_temperature;BME280_humidity;BME280_pressure;Samples;Min_cycle;Max_cycle;Signal;HPM_P1;HPM_P2
2024/01/19 00:00:50;;;;;;;70.40;65.30;;;2.40;99.90;;;;;;5039157;28;20037;-73
2024/01/19 00:03:16;;;;;;;71.57;66.37;;;2.40;99.90;;;;;;5052763;28;20387;-73
2024/01/19 00:05:42;;;;;;;71.00;65.53;;;2.40;99.90;;;;;;5054104;28;20029;-73
2024/01/19 00:08:09;;;;;;;73.67;68.43;;;2.30;99.90;;;;;;5054241;28;20037;-73
2024/01/19 00:10:36;;;;;;;79.13;73.17;;;2.30;99.90;;;;;;5037512;28;20024;-73
2024/01/19 00:13:02;;;;;;;77.03;71.63;;;2.30;99.90;;;;;;5054290;28;20032;-73
2024/01/19 00:15:28;;;;;;;74.93;69.07;;;2.30;99.90;;;;;;5051329;28;20048;-73
2024/01/19 00:17:54;;;;;;;56.77;52.57;;;2.30;99.90;;;;;;5042371;28;20052;-73
2024/01/19 00:20:20;;;;;;;55.47;51.10;;;2.30;99.90;;;;;;5053841;28;20055;-73
2024/01/19 00:22:46;;;;;;;56.03;51.43;;;2.30;99.90;;;;;;5037305;28;20048;-73
2024/01/19 00:25:12;;;;;;;57.93;52.63;;;2.40;99.90;;;;;;5052968;28;20391;-73
2024/01/19 00:27:38;;;;;;;56.07;51.50;;;2.30;99.90;;;;;;5039365;28;20040;-73
2024/01/19 00:30:05;;;;;;;53.20;48.80;;;2.40;99.90;;;;;;5053063;28;20035;-73
2024/01/19 00:32:31;;;;;;;53.23;48.83;;;2.40;99.90;;;;;;5044484;28;20041;-72
2024/01/19 00:34:57;;;;;;;52.67;47.93;;;2.40;99.90;;;;;;5049901;28;20403;-73
2024/01/19 00:37:23;;;;;;;50.27;46.07;;;2.30;99.90;;;;;;5050643;28;20048;-72
2024/01/19 00:39:49;;;;;;;50.10;46.00;;;2.30;99.90;;;;;;5043602;28;20044;-73
2024/01/19 00:42:15;;;;;;;50.47;46.33;;;2.30;99.90;;;;;;5053268;28;20041;-73
2024/01/19 00:44:41;;;;;;;51.53;47.83;;;2.30;99.90;;;;;;5036569;28;20034;-73
2024/01/19 00:47:07;;;;;;;48.70;44.90;;;2.20;99.90;;;;;;5044642;28;20029;-72
2024/01/19 00:49:33;;;;;;;55.97;51.33;;;2.20;99.90;;;;;;5033690;28;20041;-73
2024/01/19 00:51:59;;;;;;;60.40;56.13;;;2.20;99.90;;;;;;5047839;28;20387;-73
2024/01/19 00:54:25;;;;;;;57.23;52.87;;;2.10;99.90;;;;;;5053433;28;20037;-72
2024/01/19 00:56:51;;;;;;;66.33;61.87;;;2.10;99.90;;;;;;5042796;28;20432;-73
2024/01/19 00:59:17;;;;;;;52.73;48.70;;;2.10;99.90;;;;;;5049530;28;20045;-72
2024/01/19 01:01:44;;;;;;;63.77;59.53;;;2.10;99.90;;;;;;5049251;28;20022;-72
2024/01/19 01:04:10;;;;;;;61.47;57.03;;;2.10;99.90;;;;;;5032703;28;20045;-73
2024/01/19 01:06:36;;;;;;;57.20;53.13;;;2.10;99.90;;;;;;5044654;28;20379;-73
2024/01/19 01:09:03;;;;;;;60.80;56.60;;;2.00;99.90;;;;;;5053244;28;20029;-73
2024/01/19 01:11:30;;;;;;;66.10;61.37;;;2.00;99.90;;;;;;5052479;28;20037;-73
2024/01/19 01:13:56;;;;;;;63.67;59.37;;;2.00;99.90;;;;;;5067197;28;20062;-72
2024/01/19 01:16:22;;;;;;;61.33;56.93;;;2.00;99.90;;;;;;5052090;28;20041;-73
2024/01/19 01:18:48;;;;;;;70.30;65.60;;;2.00;99.90;;;;;;5046490;28;20049;-73
2024/01/19 01:21:14;;;;;;;99.33;92.87;;;2.00;99.90;;;;;;5046226;28;20534;-73
2024/01/19 01:23:40;;;;;;;97.07;91.07;;;1.90;99.90;;;;;;5052483;28;20047;-73
2024/01/19 01:26:06;;;;;;;92.00;86.37;;;1.90;99.90;;;;;;5048647;28;20029;-73
2024/01/19 01:28:32;;;;;;;86.40;80.93;;;1.90;99.90;;;;;;5051107;28;20040;-73
2024/01/19 01:30:58;;;;;;;78.77;73.90;;;1.90;99.90;;;;;;5045970;28;20033;-73
2024/01/19 01:33:25;;;;;;;67.87;63.30;;;1.90;99.90;;;;;;5034071;28;20040;-73
2024/01/19 01:35:51;;;;;;;70.77;66.00;;;1.90;99.90;;;;;;5043828;28;20025;-73
2024/01/19 01:38:17;;;;;;;82.00;76.57;;;1.90;99.90;;;;;;5052534;28;20041;-73
2024/01/19 01:40:43;;;;;;;79.33;73.87;;;1.90;99.90;;;;;;5038867;28;20025;-73
2024/01/19 01:43:09;;;;;;;75.37;70.43;;;1.90;99.90;;;;;;5052066;28;20475;-73
2024/01/19 01:45:35;;;;;;;71.27;66.67;;;1.80;99.90;;;;;;5051867;28;20033;-73
2024/01/19 01:48:01;;;;;;;69.50;64.93;;;1.80;99.90;;;;;;5052242;28;20040;-73
2024/01/19 01:50:27;;;;;;;71.03;66.23;;;1.70;99.90;;;;;;5050817;28;20506;-72
2024/01/19 01:52:53;;;;;;;67.17;62.27;;;1.80;99.90;;;;;;5034169;28;20040;-73
2024/01/19 01:55:19;;;;;;;64.40;60.00;;;1.80;99.90;;;;;;5039246;28;20043;-73
2024/01/19 01:57:46;;;;;;;65.30;60.70;;;1.80;99.90;;;;;;5040199;28;20059;-73
2024/01/19 02:00:13;;;;;;;58.53;54.23;;;1.80;99.90;;;;;;5050349;28;20033;-73
2024/01/19 02:02:39;;;;;;;55.33;51.40;;;1.80;99.90;;;;;;5044570;28;20490;-73
2024/01/19 02:05:05;;;;;;;58.00;53.73;;;1.80;99.90;;;;;;5050986;28;20033;-73
2024/01/19 02:07:32;;;;;;;62.67;58.10;;;1.70;99.90;;;;;;5051722;28;20045;-73
2024/01/19 02:09:58;;;;;;;61.70;57.47;;;1.70;99.90;;;;;;5040579;28;20029;-73
2024/01/19 02:12:24;;;;;;;60.47;56.03;;;1.60;99.90;;;;;;5048032;28;20033;-72
2024/01/19 02:14:51;;;;;;;56.00;51.90;;;1.50;99.90;;;;;;5050679;28;20037;-73
2024/01/19 02:17:17;;;;;;;59.50;55.03;;;1.60;99.90;;;;;;5051200;28;20037;-73
2024/01/19 02:19:43;;;;;;;57.43;52.83;;;1.50;99.90;;;;;;5050456;28;20040;-73
2024/01/19 02:22:09;;;;;;;51.43;47.63;;;1.50;99.90;;;;;;5041310;28;20033;-73
2024/01/19 02:24:35;;;;;;;53.90;49.70;;;1.50;99.90;;;;;;5046922;28;20092;-73
2024/01/19 02:27:02;;;;;;;54.90;50.10;;;1.50;99.90;;;;;;5038104;28;20033;-73
2024/01/19 02:29:28;;;;;;;52.67;48.57;;;1.50;99.90;;;;;;5042137;28;20036;-73
2024/01/19 02:31:54;;;;;;;51.07;46.73;;;1.40;99.90;;;;;;5045960;28;20048;-73
2024/01/19 02:34:22;;;;;;;52.87;48.90;;;1.40;99.90;;;;;;5044732;28;20033;-73
2024/01/19 02:36:48;;;;;;;55.80;51.57;;;1.40;99.90;;;;;;5042996;28;20045;-73
2024/01/19 02:39:15;;;;;;;51.50;47.53;;;1.50;99.90;;;;;;5051875;28;20049;-73
2024/01/19 02:41:41;;;;;;;53.93;49.70;;;1.50;99.90;;;;;;5050747;28;20056;-73
2024/01/19 02:44:07;;;;;;;50.13;46.30;;;1.50;99.90;;;;;;5051611;28;20364;-73
2024/01/19 02:46:38;;;;;;;58.50;54.10;;;1.50;99.90;;;;;;5044526;28;20037;-73
2024/01/19 02:49:05;;;;;;;52.67;48.70;;;1.50;99.90;;;;;;5031280;28;20054;-73
2024/01/19 02:51:31;;;;;;;65.70;60.77;;;1.50;99.90;;;;;;5041749;28;20505;-73
2024/01/19 02:53:57;;;;;;;60.87;56.77;;;1.50;99.90;;;;;;5050130;28;20045;-73
2024/01/19 02:56:23;;;;;;;63.57;59.23;;;1.50;99.90;;;;;;5038678;28;20460;-73
2024/01/19 02:58:49;;;;;;;66.70;62.20;;;1.50;99.90;;;;;;5035440;28;20056;-73
2024/01/19 03:01:15;;;;;;;59.53;55.43;;;1.40;99.90;;;;;;5042362;28;20042;-73
2024/01/19 03:03:41;;;;;;;53.93;50.03;;;1.40;99.90;;;;;;5037913;28;20034;-73
2024/01/19 03:06:08;;;;;;;62.43;57.93;;;1.30;99.90;;;;;;5037163;28;20033;-73
2024/01/19 03:08:34;;;;;;;62.50;57.67;;;1.30;99.90;;;;;;5038641;28;20045;-74
2024/01/19 03:11:00;;;;;;;54.97;50.80;;;1.30;99.90;;;;;;5039731;28;20029;-73
2024/01/19 03:13:26;;;;;;;55.83;51.70;;;1.20;99.90;;;;;;5053886;28;20064;-73
2024/01/19 03:15:52;;;;;;;57.20;53.10;;;1.20;99.90;;;;;;5042288;28;20025;-73
2024/01/19 03:18:18;;;;;;;58.23;54.33;;;1.20;99.90;;;;;;5047129;28;20029;-73
2024/01/19 03:20:44;;;;;;;52.17;48.50;;;1.20;99.90;;;;;;5042306;28;20040;-73
2024/01/19 03:23:10;;;;;;;58.83;54.37;;;1.20;99.90;;;;;;5036429;28;20060;-74
2024/01/19 03:25:37;;;;;;;60.87;56.30;;;1.30;99.90;;;;;;5052758;28;20037;-73
2024/01/19 03:28:03;;;;;;;59.30;54.97;;;1.30;99.90;;;;;;5052289;28;20033;-73
2024/01/19 03:30:29;;;;;;;55.97;51.73;;;1.30;99.90;;;;;;5044842;28;20048;-73
2024/01/19 03:32:55;;;;;;;54.67;50.70;;;1.30;99.90;;;;;;5051685;28;20036;-73
2024/01/19 03:35:21;;;;;;;56.90;52.63;;;1.30;99.90;;;;;;5041327;28;20391;-73
2024/01/19 03:37:48;;;;;;;54.70;50.97;;;1.30;99.90;;;;;;5049609;28;20029;-72
2024/01/19 03:40:14;;;;;;;53.77;50.17;;;1.30;99.90;;;;;;5054085;28;20494;-73
2024/01/19 03:42:40;;;;;;;50.80;47.23;;;1.30;99.90;;;;;;5054958;28;20495;-73
2024/01/19 03:45:07;;;;;;;53.73;49.83;;;1.30;99.90;;;;;;5053747;28;20028;-72
2024/01/19 03:47:33;;;;;;;55.40;51.80;;;1.20;99.90;;;;;;5054518;28;20044;-73
2024/01/19 03:50:01;;;;;;;59.17;55.07;;;1.20;99.90;;;;;;5055195;28;20037;-73
2024/01/19 03:52:27;;;;;;;49.13;45.50;;;1.30;99.90;;;;;;5038004;28;20403;-72
2024/01/19 03:54:53;;;;;;;53.07;49.17;;;1.30;99.90;;;;;;5039729;28;20021;-73
2024/01/19 03:57:19;;;;;;;53.77;49.97;;;1.30;99.90;;;;;;5034614;28;20042;-72
2024/01/19 03:59:45;;;;;;;50.23;46.60;;;1.30;99.90;;;;;;5034433;28;20052;-73
2024/01/19 04:02:11;;;;;;;51.73;47.97;;;1.30;99.90;;;;;;5033742;28;20044;-73
2024/01/19 04:04:37;;;;;;;47.60;44.07;;;1.20;99.90;;;;;;5034582;28;20041;-73
2024/01/19 04:07:03;;;;;;;46.07;42.77;;;1.20;99.90;;;;;;5034539;28;20411;-73
2024/01/19 04:09:29;;;;;;;47.83;44.47;;;1.10;99.90;;;;;;5040472;28;20036;-73
2024/01/19 04:11:55;;;;;;;47.77;44.27;;;1.10;99.90;;;;;;5039519;28;20392;-73
2024/01/19 04:14:22;;;;;;;47.80;44.40;;;1.10;99.90;;;;;;5033085;28;20050;-73
2024/01/19 04:16:48;;;;;;;49.37;45.53;;;1.00;99.90;;;;;;5046525;28;20040;-73
2024/01/19 04:19:14;;;;;;;49.27;45.57;;;1.00;99.90;;;;;;5041574;28;20072;-73
2024/01/19 04:21:40;;;;;;;46.97;43.40;;;0.90;99.90;;;;;;5052301;28;20387;-73
2024/01/19 04:24:06;;;;;;;46.73;43.03;;;0.90;99.90;;;;;;5046803;28;20033;-72
2024/01/19 04:26:32;;;;;;;51.17;47.33;;;0.90;99.90;;;;;;5053122;28;20045;-73
2024/01/19 04:28:58;;;;;;;62.40;58.07;;;0.90;99.90;;;;;;5054118;28;20029;-72
2024/01/19 04:31:24;;;;;;;54.10;50.37;;;0.90;99.90;;;;;;5049423;28;20534;-73
2024/01/19 04:33:50;;;;;;;55.47;51.53;;;0.90;99.90;;;;;;5041066;28;20229;-73
2024/01/19 04:36:17;;;;;;;55.43;51.73;;;0.90;99.90;;;;;;5053459;28;20037;-73
2024/01/19 04:38:44;;;;;;;48.10;44.47;;;0.80;99.90;;;;;;5045611;28;20518;-73
2024/01/19 04:41:10;;;;;;;52.00;48.10;;;0.70;99.90;;;;;;5041110;28;20071;-73
2024/01/19 04:43:36;;;;;;;50.03;46.53;;;0.70;99.90;;;;;;5053703;28;20040;-73
2024/01/19 04:46:03;;;;;;;69.77;65.40;;;0.70;99.90;;;;;;5051519;28;20505;-73
2024/01/19 04:48:29;;;;;;;78.30;73.57;;;0.70;99.90;;;;;;5053752;28;20399;-72
2024/01/19 04:50:55;;;;;;;76.70;71.70;;;0.70;99.90;;;;;;5051004;28;20037;-73
2024/01/19 04:53:21;;;;;;;73.70;68.80;;;0.70;99.90;;;;;;5053270;28;20409;-73
2024/01/19 04:55:47;;;;;;;66.50;62.17;;;0.70;99.90;;;;;;5044977;28;20029;-72
2024/01/19 04:58:13;;;;;;;69.00;64.73;;;0.60;99.90;;;;;;5039384;28;20029;-73
2024/01/19 05:00:39;;;;;;;66.17;61.90;;;0.70;99.90;;;;;;5036769;28;20040;-73
2024/01/19 05:03:05;;;;;;;56.80;52.63;;;0.60;99.90;;;;;;5040295;28;20037;-72
2024/01/19 05:05:31;;;;;;;72.37;67.67;;;0.60;99.90;;;;;;5052984;28;20592;-73
2024/01/19 05:07:59;;;;;;;58.20;54.37;;;0.60;99.90;;;;;;5045586;28;20029;-73
2024/01/19 05:10:25;;;;;;;65.70;61.17;;;0.70;99.90;;;;;;5037693;28;20056;-72
2024/01/19 05:12:51;;;;;;;68.87;64.43;;;0.60;99.90;;;;;;5033307;28;20125;-73
2024/01/19 05:15:17;;;;;;;58.40;53.60;;;0.60;99.90;;;;;;5039472;28;20048;-73
2024/01/19 05:17:43;;;;;;;58.13;54.03;;;0.60;99.90;;;;;;5052949;28;20029;-73
2024/01/19 05:20:10;;;;;;;58.43;53.93;;;0.60;99.90;;;;;;5047143;28;20049;-73
2024/01/19 05:22:36;;;;;;;66.43;61.27;;;0.60;99.90;;;;;;5044479;28;20028;-72
2024/01/19 05:25:03;;;;;;;55.00;50.67;;;0.60;99.90;;;;;;5032978;28;20399;-72
2024/01/19 05:27:29;;;;;;;1012.70;127.77;;;0.60;99.90;;;;;;5039389;28;20040;-73
2024/01/19 05:29:55;;;;;;;49.00;44.97;;;0.60;99.90;;;;;;5039926;28;20049;-73
2024/01/19 05:32:21;;;;;;;45.17;41.83;;;0.50;99.90;;;;;;5051182;28;20047;-72
2024/01/19 05:34:47;;;;;;;1999.90;234.43;;;0.60;99.90;;;;;;5052445;28;20083;-72
2024/01/19 05:37:13;;;;;;;54.53;50.50;;;0.60;99.90;;;;;;5052276;28;20028;-73
2024/01/19 05:39:39;;;;;;;55.27;50.80;;;0.60;99.90;;;;;;5052508;28;20064;-73
2024/01/19 05:42:05;;;;;;;65.63;60.93;;;0.50;99.90;;;;;;5049987;28;20032;-73
2024/01/19 05:44:31;;;;;;;56.77;52.37;;;0.50;99.90;;;;;;5052486;28;20033;-72
2024/01/19 05:46:57;;;;;;;52.77;48.80;;;0.50;99.90;;;;;;5051585;28;20033;-73
2024/01/19 05:49:23;;;;;;;51.70;47.70;;;0.50;99.90;;;;;;5050212;28;20044;-73
2024/01/19 05:51:50;;;;;;;50.00;46.37;;;0.50;99.90;;;;;;5051896;28;20368;-72
2024/01/19 05:54:16;;;;;;;47.00;43.50;;;0.50;99.90;;;;;;5053074;28;20056;-73
2024/01/19 05:56:42;;;;;;;48.00;44.23;;;0.40;99.90;;;;;;5039433;28;20097;-73
2024/01/19 05:59:08;;;;;;;954.33;131.80;;;0.40;99.90;;;;;;5045576;28;20506;-73
2024/01/19 06:01:34;;;;;;;54.63;50.73;;;0.40;99.90;;;;;;5051066;28;20033;-73
2024/01/19 06:04:00;;;;;;;51.07;47.43;;;0.40;99.90;;;;;;5052112;28;20036;-73
2024/01/19 06:06:26;;;;;;;57.40;53.43;;;0.40;99.90;;;;;;5051959;28;20036;-72
2024/01/19 06:08:52;;;;;;;58.07;54.03;;;0.40;99.90;;;;;;5052269;28;20048;-73
2024/01/19 06:11:18;;;;;;;51.17;47.47;;;0.30;99.90;;;;;;5067174;28;20036;-73
2024/01/19 06:13:46;;;;;;;53.87;49.97;;;0.30;99.90;;;;;;5052173;28;20049;-73
2024/01/19 06:16:13;;;;;;;56.27;51.93;;;0.30;99.90;;;;;;5046682;28;20028;-73
2024/01/19 06:18:39;;;;;;;57.67;53.23;;;0.20;99.90;;;;;;5051636;28;20044;-73
2024/01/19 06:21:11;;;;;;;57.77;53.63;;;0.30;99.90;;;;;;5051847;28;20029;-72
2024/01/19 06:23:38;;;;;;;55.10;50.67;;;0.30;99.90;;;;;;5052083;28;20502;-73
2024/01/19 06:26:10;;;;;;;64.87;59.80;;;0.20;99.90;;;;;;5051519;28;20036;-73
2024/01/19 06:28:37;;;;;;;63.83;58.57;;;0.20;99.90;;;;;;5050456;28;20037;-73
2024/01/19 06:31:04;;;;;;;60.67;55.07;;;0.20;99.90;;;;;;5050710;28;20033;-73
2024/01/19 06:33:30;;;;;;;56.23;51.53;;;0.20;99.90;;;;;;5051533;28;20037;-73
2024/01/19 06:35:56;;;;;;;57.83;53.70;;;0.20;99.90;;;;;;5051566;28;20032;-73
2024/01/19 06:38:23;;;;;;;60.93;56.63;;;0.20;99.90;;;;;;5049990;28;20419;-73
2024/01/19 06:40:50;;;;;;;57.87;53.43;;;0.20;99.90;;;;;;5051025;28;20403;-74
2024/01/19 06:43:16;;;;;;;50.10;46.10;;;0.20;99.90;;;;;;5052291;28;20025;-73
2024/01/19 06:45:42;;;;;;;53.40;48.93;;;0.20;99.90;;;;;;5049857;28;20048;-73
2024/01/19 06:48:08;;;;;;;63.30;58.33;;;0.20;99.90;;;;;;5035502;28;20460;-73
2024/01/19 06:50:34;;;;;;;57.27;52.93;;;0.10;99.90;;;;;;5050095;28;20029;-73
2024/01/19 06:53:00;;;;;;;63.00;58.20;;;0.20;99.90;;;;;;5055849;28;20477;-73
2024/01/19 06:55:27;;;;;;;68.40;62.97;;;0.20;99.90;;;;;;5053180;28;20041;-73
2024/01/19 06:57:54;;;;;;;61.97;57.20;;;0.10;99.90;;;;;;5039984;28;20037;-73
2024/01/19 07:00:20;;;;;;;59.10;54.10;;;0.10;99.90;;;;;;5038090;28;20520;-73
2024/01/19 07:02:46;;;;;;;85.23;72.77;;;0.10;99.90;;;;;;5055102;28;20033;-73
2024/01/19 07:05:12;;;;;;;73.97;66.60;;;0.10;99.90;;;;;;5054762;28;20044;-73
2024/01/19 07:07:39;;;;;;;57.47;52.53;;;0.10;99.90;;;;;;5049754;28;20491;-78
2024/01/19 07:10:06;;;;;;;75.47;70.07;;;0.10;99.90;;;;;;5041043;28;20033;-69
2024/01/19 07:12:33;;;;;;;53.67;49.37;;;0.10;99.90;;;;;;5054955;28;20055;-73
2024/01/19 07:14:59;;;;;;;63.93;58.23;;;0.60;99.90;;;;;;5055567;28;20056;-67
2024/01/19 07:17:25;;;;;;;37.07;33.67;;;0.70;99.90;;;;;;5053709;28;20414;-73
2024/01/19 07:19:51;;;;;;;41.97;38.53;;;0.70;99.90;;;;;;5055327;28;20048;-72
2024/01/19 07:22:17;;;;;;;473.43;90.73;;;0.70;99.90;;;;;;5055021;28;20037;-73
2024/01/19 07:24:43;;;;;;;54.70;50.17;;;0.70;99.90;;;;;;5055128;28;20041;-73
2024/01/19 07:27:09;;;;;;;63.90;59.23;;;0.60;99.90;;;;;;5055170;28;20037;-72
2024/01/19 07:29:35;;;;;;;52.37;48.67;;;0.60;99.90;;;;;;5055277;28;20033;-73
2024/01/19 07:32:01;;;;;;;49.87;45.87;;;0.50;99.90;;;;;;5054456;28;20040;-73
2024/01/19 07:34:28;;;;;;;51.00;46.97;;;0.50;99.90;;;;;;5053424;28;20039;-73
2024/01/19 07:36:54;;;;;;;53.53;49.53;;;0.40;99.90;;;;;;5055210;28;20045;-73
2024/01/19 07:39:23;;;;;;;57.37;53.33;;;0.30;99.90;;;;;;5053799;28;20067;-73
2024/01/19 07:41:52;;;;;;;67.30;61.60;;;0.30;99.90;;;;;;5055011;28;20100;-73
2024/01/19 07:44:18;;;;;;;57.70;53.40;;;0.20;99.90;;;;;;5053843;28;20032;-73
2024/01/19 07:46:44;;;;;;;529.03;125.50;;;0.20;99.90;;;;;;5042984;28;20042;-73
2024/01/19 07:49:11;;;;;;;1999.90;235.97;;;0.20;99.90;;;;;;5034126;28;20041;-72
2024/01/19 07:51:37;;;;;;;52.60;48.63;;;0.30;99.90;;;;;;5034906;28;20387;-75
2024/01/19 07:54:04;;;;;;;45.97;41.77;;;0.20;99.90;;;;;;5046943;28;20039;-74
2024/01/19 07:56:30;;;;;;;81.67;70.20;;;0.20;99.90;;;;;;5054128;28;20037;-74
2024/01/19 07:58:56;;;;;;;61.97;56.43;;;0.20;99.90;;;;;;5054553;28;20033;-74
2024/01/19 08:01:22;;;;;;;55.03;50.43;;;0.20;99.90;;;;;;5053547;28;20527;-74
2024/01/19 08:03:48;;;;;;;132.67;55.00;;;0.30;99.90;;;;;;5050330;28;20025;-74
2024/01/19 08:06:14;;;;;;;46.50;42.87;;;0.20;99.90;;;;;;5052692;28;20479;-74
2024/01/19 08:08:40;;;;;;;42.47;38.63;;;0.20;99.90;;;;;;5043423;28;20025;-72
2024/01/19 08:11:06;;;;;;;39.87;35.50;;;0.20;99.90;;;;;;5034414;28;20029;-74
2024/01/19 08:13:32;;;;;;;59.83;34.63;;;0.20;99.90;;;;;;5034277;28;20048;-73
2024/01/19 08:15:58;;;;;;;39.77;36.20;;;0.10;99.90;;;;;;5033576;28;20030;-74
2024/01/19 08:18:24;;;;;;;43.67;40.37;;;0.10;99.90;;;;;;5043209;28;20037;-74
2024/01/19 08:20:51;;;;;;;52.57;48.77;;;0.10;99.90;;;;;;5052479;28;20049;-74
2024/01/19 08:23:17;;;;;;;57.33;53.23;;;0.20;99.90;;;;;;5048686;28;20029;-74
2024/01/19 08:25:43;;;;;;;51.33;47.60;;;0.10;99.90;;;;;;5034273;28;20025;-74
2024/01/19 08:28:09;;;;;;;48.90;45.23;;;0.10;99.90;;;;;;5034107;28;20388;-74
2024/01/19 08:30:35;;;;;;;55.67;49.73;;;0.10;99.90;;;;;;5033085;28;20026;-75
2024/01/19 08:33:01;;;;;;;50.97;46.90;;;0.20;99.90;;;;;;5053596;28;20076;-75
2024/01/19 08:35:27;;;;;;;47.03;43.13;;;0.20;99.90;;;;;;5051634;28;20041;-75
2024/01/19 08:37:53;;;;;;;53.60;48.97;;;0.20;99.90;;;;;;5069162;28;20399;-74
2024/01/19 08:40:19;;;;;;;70.80;65.67;;;0.30;99.90;;;;;;5053412;28;20040;-74
2024/01/19 08:42:45;;;;;;;52.00;47.67;;;0.20;99.90;;;;;;5048414;28;20379;-71
2024/01/19 08:45:12;;;;;;;133.93;59.27;;;0.40;99.90;;;;;;5041604;28;20029;-74
2024/01/19 08:47:38;;;;;;;58.20;52.20;;;0.60;99.90;;;;;;5050547;28;20459;-74
2024/01/19 08:50:05;;;;;;;48.43;43.80;;;0.70;99.90;;;;;;5052436;28;20040;-75
2024/01/19 08:52:32;;;;;;;43.70;39.37;;;0.70;99.90;;;;;;5043122;28;20040;-75
2024/01/19 08:54:58;;;;;;;45.77;41.13;;;0.70;99.90;;;;;;5043558;28;20048;-75
2024/01/19 08:57:24;;;;;;;43.47;39.07;;;0.80;99.90;;;;;;5052806;28;20565;-75
2024/01/19 08:59:51;;;;;;;289.70;63.40;;;0.80;99.90;;;;;;5051908;28;20052;-76
2024/01/19 09:02:17;;;;;;;45.63;41.43;;;0.80;99.90;;;;;;5050837;28;20044;-73
2024/01/19 09:04:43;;;;;;;63.77;58.87;;;0.80;99.90;;;;;;5051541;28;20037;-75
2024/01/19 09:07:09;;;;;;;1999.90;370.20;;;0.90;99.90;;;;;;5039986;28;20026;-76
2024/01/19 09:09:35;;;;;;;53.73;49.27;;;0.90;99.90;;;;;;5047865;28;20029;-75
2024/01/19 09:12:01;;;;;;;38.43;34.43;;;1.00;99.90;;;;;;5043105;28;20040;-73
2024/01/19 09:14:27;;;;;;;56.97;52.50;;;1.00;99.90;;;;;;5039076;28;20381;-74
2024/01/19 09:16:53;;;;;;;47.90;44.20;;;1.00;99.90;;;;;;5051167;28;20033;-75
2024/01/19 09:19:19;;;;;;;46.60;42.90;;;1.10;99.90;;;;;;5052945;28;20025;-75
2024/01/19 09:21:47;;;;;;;117.23;51.57;;;1.20;99.90;;;;;;5052750;28;20047;-73
2024/01/19 09:24:13;;;;;;;36.70;33.03;;;1.20;99.90;;;;;;5031517;28;20056;-74
2024/01/19 09:26:39;;;;;;;38.93;35.63;;;1.40;99.90;;;;;;5044791;28;20037;-75
2024/01/19 09:29:08;;;;;;;42.77;39.17;;;1.40;99.90;;;;;;5051801;28;20029;-74
2024/01/19 09:31:44;;;;;;;42.93;39.30;;;1.40;99.90;;;;;;5052475;28;20040;-75
2024/01/19 09:34:10;;;;;;;49.40;45.20;;;1.40;99.90;;;;;;5051700;28;20383;-74
2024/01/19 09:36:37;;;;;;;74.37;69.20;;;1.40;99.90;;;;;;5051875;28;20507;-72
2024/01/19 09:39:03;;;;;;;74.47;69.10;;;1.10;99.90;;;;;;5051661;28;20043;-74
2024/01/19 09:41:44;;;;;;;80.27;74.47;;;1.20;99.90;;;;;;5042878;28;20048;-72
2024/01/19 09:44:11;;;;;;;;;;;1.20;99.90;;;;;;5037490;28;20480;-72
2024/01/19 09:46:50;;;;;;;32.40;29.57;;;1.20;99.90;;;;;;5058772;28;19909;-72
2024/01/19 09:49:40;;;;;;;53.17;48.67;;;1.10;99.90;;;;;;5038601;28;20033;-74
2024/01/19 09:52:19;;;;;;;45.43;41.57;;;1.10;99.90;;;;;;5042400;28;20045;-74
2024/01/19 09:54:45;;;;;;;38.37;34.87;;;1.20;99.90;;;;;;5046563;28;20045;-73
2024/01/19 09:57:11;;;;;;;37.70;34.60;;;1.20;99.90;;;;;;5028290;28;20464;-73
2024/01/19 09:59:37;;;;;;;94.90;88.87;;;1.40;99.90;;;;;;5036827;28;20044;-73
2024/01/19 10:02:03;;;;;;;86.27;81.03;;;1.40;99.90;;;;;;5049339;28;20025;-70
2024/01/19 10:04:30;;;;;;;67.20;62.63;;;1.30;99.90;;;;;;5048259;28;20036;-73
2024/01/19 10:06:56;;;;;;;44.23;40.87;;;1.50;99.90;;;;;;5048436;28;20036;-74
2024/01/19 10:09:22;;;;;;;38.37;35.13;;;1.40;99.90;;;;;;5041446;28;20033;-74
2024/01/19 10:11:50;;;;;;;31.03;28.53;;;1.50;99.90;;;;;;5043852;28;20472;-73
2024/01/19 10:14:18;;;;;;;35.73;33.07;;;1.60;99.90;;;;;;5042607;28;20048;-74
2024/01/19 10:16:44;;;;;;;41.27;37.93;;;1.60;99.90;;;;;;5042640;28;20044;-74
2024/01/19 10:19:13;;;;;;;37.27;34.43;;;1.70;99.90;;;;;;5051052;28;20387;-73
2024/01/19 10:21:42;;;;;;;34.10;31.37;;;1.80;99.90;;;;;;5049988;28;20364;-74
2024/01/19 10:24:10;;;;;;;54.27;50.77;;;1.90;99.90;;;;;;5039241;28;20052;-73
2024/01/19 10:26:37;;;;;;;52.13;48.43;;;2.00;99.90;;;;;;5043058;28;20092;-72
2024/01/19 10:29:13;;;;;;;38.93;36.07;;;2.10;99.90;;;;;;5051448;28;20025;-74
2024/01/19 10:31:43;;;;;;;36.80;34.17;;;2.20;99.90;;;;;;5048004;28;20036;-73
2024/01/19 10:34:19;;;;;;;27.60;25.63;;;2.40;99.90;;;;;;5045684;28;20033;-76
2024/01/19 10:36:45;;;;;;;27.50;25.60;;;2.40;99.90;;;;;;5050174;28;20479;-74
2024/01/19 10:39:26;;;;;;;67.07;63.23;;;2.40;99.90;;;;;;5033373;28;20048;-73
2024/01/19 10:42:03;;;;;;;84.47;79.85;;;2.40;99.90;;;;;;5035813;28;20041;-73
2024/01/19 10:44:29;;;;;;;43.53;39.97;;;2.40;99.90;;;;;;5036489;28;20037;-73
2024/01/19 10:46:58;;;;;;;59.13;55.40;;;2.50;99.90;;;;;;5050945;28;20049;-74
2024/01/19 10:49:24;;;;;;;79.37;74.53;;;2.60;99.90;;;;;;5051928;28;20033;-73
2024/01/19 10:51:51;;;;;;;90.17;84.90;;;2.60;99.90;;;;;;5046108;28;20056;-72
2024/01/19 10:54:24;;;;;;;80.37;75.90;;;2.70;99.90;;;;;;5044908;28;20476;-73
2024/01/19 10:57:03;;;;;;;78.80;74.17;;;2.80;99.90;;;;;;5045566;28;20052;-73
2024/01/19 10:59:29;;;;;;;54.57;51.07;;;2.90;99.90;;;;;;5051814;28;20395;-72
2024/01/19 11:01:59;;;;;;;44.17;41.03;;;3.10;99.90;;;;;;5050747;28;20045;-72
2024/01/19 11:04:26;;;;;;;70.67;66.40;;;3.30;99.90;;;;;;5050901;28;20029;-72
2024/01/19 11:06:52;;;;;;;62.83;59.03;;;3.40;99.90;;;;;;5048336;28;20284;-73
2024/01/19 11:09:18;;;;;;;36.53;33.93;;;3.40;99.90;;;;;;5037814;28;20383;-72
2024/01/19 11:11:54;;;;;;;37.23;34.13;;;3.40;99.90;;;;;;5044343;28;20081;-73
2024/01/19 11:14:23;;;;;;;37.70;35.10;;;3.40;99.90;;;;;;5051597;28;20041;-72
2024/01/19 11:16:49;;;;;;;38.33;35.27;;;3.40;99.90;;;;;;5050582;28;20049;-72
2024/01/19 11:19:17;;;;;;;51.33;47.60;;;3.50;99.90;;;;;;5041646;28;20040;-74
2024/01/19 11:21:43;;;;;;;55.53;52.43;;;3.60;99.90;;;;;;5043395;28;20040;-72
2024/01/19 11:24:10;;;;;;;43.13;40.03;;;3.60;99.90;;;;;;5031250;28;20033;-74
2024/01/19 11:26:39;;;;;;;46.73;43.73;;;3.70;99.90;;;;;;5023664;28;20053;-74
2024/01/19 11:29:31;;;;;;;88.07;83.07;;;3.70;99.90;;;;;;5049269;28;20032;-73
2024/01/19 11:31:58;;;;;;;45.77;42.47;;;3.70;99.90;;;;;;5049128;28;20040;-74
2024/01/19 11:34:43;;;;;;;69.40;65.07;;;3.90;99.90;;;;;;5052635;28;20040;-74
2024/01/19 11:37:13;;;;;;;64.43;60.63;;;3.90;99.90;;;;;;5052440;28;20040;-74
2024/01/19 11:39:40;;;;;;;89.65;84.25;;;3.90;99.90;;;;;;5053129;28;20025;-74
2024/01/19 11:42:07;;;;;;;111.13;105.10;;;4.00;99.90;;;;;;5052327;28;20059;-74
2024/01/19 11:44:43;;;;;;;172.87;163.70;;;4.00;99.90;;;;;;5053568;28;20059;-74
2024/01/19 11:47:29;;;;;;;74.13;69.77;;;4.10;99.90;;;;;;5048560;28;20033;-73
2024/01/19 11:49:55;;;;;;;81.67;76.83;;;4.20;99.90;;;;;;5053389;28;20036;-74
2024/01/19 11:52:21;;;;;;;83.43;78.77;;;4.30;99.90;;;;;;5053910;28;20066;-74
2024/01/19 11:54:47;;;;;;;65.00;61.27;;;4.50;99.90;;;;;;5051676;28;20025;-74
2024/01/19 11:57:21;;;;;;;49.07;46.10;;;4.50;99.90;;;;;;5037307;28;20033;-74
2024/01/19 11:59:47;;;;;;;49.23;45.87;;;4.60;99.90;;;;;;5046367;28;20021;-73
2024/01/19 12:02:27;;;;;;;47.77;44.73;;;4.70;99.90;;;;;;5053431;28;20044;-74
2024/01/19 12:04:53;;;;;;;81.03;76.40;;;4.80;99.90;;;;;;5039866;28;20041;-74
2024/01/19 12:07:20;;;;;;;52.50;49.23;;;4.80;99.90;;;;;;5050110;28;20041;-74
2024/01/19 12:10:11;;;;;;;112.63;106.33;;;4.90;99.90;;;;;;5053825;28;20025;-74
2024/01/19 12:12:38;;;;;;;142.55;134.68;;;4.90;99.90;;;;;;5053213;28;20032;-73
2024/01/19 12:15:05;;;;;;;185.27;175.53;;;4.90;99.90;;;;;;5045381;28;20053;-73
2024/01/19 12:17:32;;;;;;;92.17;87.17;;;5.00;99.90;;;;;;5045348;28;20032;-74
2024/01/19 12:19:58;;;;;;;1999.90;999.90;;;5.00;99.90;;;;;;5033031;28;20037;-74
2024/01/19 12:22:24;;;;;;;1999.90;999.90;;;5.00;99.90;;;;;;5050530;28;20111;-74
2024/01/19 12:24:50;;;;;;;1999.90;999.90;;;4.90;99.90;;;;;;5051576;28;20480;-74
2024/01/19 12:27:17;;;;;;;1999.90;999.90;;;5.00;99.90;;;;;;5052204;28;20414;-73
2024/01/19 12:29:44;;;;;;;1999.90;999.90;;;5.10;99.90;;;;;;5049207;28;20025;-74
2024/01/19 12:32:10;;;;;;;1999.90;999.90;;;5.20;99.90;;;;;;5048701;28;20087;-74
2024/01/19 12:34:37;;;;;;;1999.90;999.90;;;5.30;99.90;;;;;;5037636;28;20395;-74